Time;durP1;ratioP1;P1;durP2;ratioP2;P2;SDS_P1;SDS_P2;PMS_P1;PMS_P2;Temp;Humidity;BMP_temperature;BMP_pressure;BME280_temperature;BME280_humidity;BME280_pressure;Samples;Min_cycle;Max_cycle;Signal;HPM_P1;HPM_P2
2021/12/12 00:02:27;;;;;;;4.00;3.70;;;15.80;27.00;;;;;;5066949;28;20491;-70
2021/12/12 00:04:55;;;;;;;3.30;3.00;;;15.70;27.10;;;;;;5067330;28;20208;-69
2021/12/12 00:07:25;;;;;;;3.63;3.40;;;15.70;27.20;;;;;;5076761;28;20228;-71
2021/12/12 00:09:59;;;;;;;3.65;3.35;;;15.70;27.10;;;;;;5076939;28;20215;-71
2021/12/12 00:12:29;;;;;;;3.70;3.40;;;15.70;27.00;;;;;;5056535;28;20240;-71
2021/12/12 00:14:57;;;;;;;3.50;3.20;;;15.70;27.00;;;;;;5056125;28;20200;-71
2021/12/12 00:17:26;;;;;;;3.80;3.50;;;15.70;27.20;;;;;;5056396;28;20209;-70
2021/12/12 00:19:55;;;;;;;3.70;3.40;;;15.70;27.10;;;;;;5057129;28;20209;-70
2021/12/12 00:22:25;;;;;;;3.42;3.17;;;15.60;27.20;;;;;;5057095;28;20213;-71
2021/12/12 00:24:55;;;;;;;3.30;3.03;;;15.60;27.00;;;;;;5057210;28;20220;-71
2021/12/12 00:27:22;;;;;;;3.60;3.30;;;15.60;27.10;;;;;;5056160;28;20229;-70
2021/12/12 00:29:49;;;;;;;3.33;3.03;;;15.60;27.00;;;;;;5056750;28;20205;-71
2021/12/12 00:32:18;;;;;;;3.30;3.00;;;15.60;27.20;;;;;;5057447;28;20220;-71
2021/12/12 00:34:49;;;;;;;3.28;2.97;;;15.60;27.00;;;;;;5057072;28;20223;-70
2021/12/12 00:37:18;;;;;;;3.17;2.95;;;15.60;27.20;;;;;;5056755;28;20498;-70
2021/12/12 00:39:50;;;;;;;3.75;3.45;;;15.50;27.60;;;;;;5056621;28;20209;-70
2021/12/12 00:42:21;;;;;;;3.63;3.33;;;15.60;27.20;;;;;;5055646;28;20216;-71
2021/12/12 00:44:52;;;;;;;3.55;3.30;;;15.50;26.90;;;;;;5056137;28;20205;-70
2021/12/12 00:47:20;;;;;;;3.53;3.22;;;15.60;27.00;;;;;;5056454;28;20221;-71
2021/12/12 00:49:47;;;;;;;3.78;3.47;;;15.50;27.10;;;;;;5053831;28;20201;-70
2021/12/12 00:52:17;;;;;;;3.63;3.33;;;15.50;27.20;;;;;;5055528;28;20205;-70
2021/12/12 00:54:45;;;;;;;3.50;3.20;;;15.50;27.10;;;;;;5056303;28;20209;-72
2021/12/12 00:57:16;;;;;;;3.53;3.22;;;15.50;27.00;;;;;;5056112;28;20466;-70
2021/12/12 00:59:46;;;;;;;3.30;3.00;;;15.50;27.00;;;;;;5055670;28;20598;-71
2021/12/12 01:02:16;;;;;;;4.18;3.80;;;15.40;27.00;;;;;;5056076;28;20217;-70
2021/12/12 01:04:47;;;;;;;3.90;3.60;;;15.50;27.00;;;;;;5055487;28;20216;-70
2021/12/12 01:07:18;;;;;;;3.40;3.10;;;15.40;27.10;;;;;;5056080;28;20225;-70
2021/12/12 01:09:49;;;;;;;3.60;3.30;;;15.40;27.10;;;;;;5055714;28;20204;-70
2021/12/12 01:12:19;;;;;;;3.75;3.45;;;15.40;27.00;;;;;;5073955;28;20262;-71
2021/12/12 01:14:53;;;;;;;3.72;3.22;;;15.40;27.00;;;;;;5076183;28;20220;-70
2021/12/12 01:17:25;;;;;;;3.35;3.05;;;15.40;27.00;;;;;;5075917;28;20204;-70
2021/12/12 01:19:56;;;;;;;3.50;3.20;;;15.40;26.90;;;;;;5076437;28;20215;-70
2021/12/12 01:22:29;;;;;;;4.32;3.30;;;15.40;27.00;;;;;;5076223;28;20204;-70
2021/12/12 01:25:00;;;;;;;5.53;3.40;;;15.40;27.30;;;;;;5075968;28;20291;-68
2021/12/12 01:27:27;;;;;;;3.58;3.20;;;15.40;27.50;;;;;;5075993;28;20235;-70
2021/12/12 01:29:56;;;;;;;4.05;3.50;;;15.40;27.40;;;;;;5075235;28;20196;-70
2021/12/12 01:32:28;;;;;;;4.03;3.50;;;15.40;27.40;;;;;;5075537;28;20211;-70
2021/12/12 01:34:57;;;;;;;3.45;3.15;;;15.40;27.50;;;;;;5076275;28;20208;-69
2021/12/12 01:37:38;;;;;;;3.40;3.10;;;15.40;27.60;;;;;;5075007;28;20196;-69
2021/12/12 01:40:12;;;;;;;4.88;3.47;;;15.40;27.50;;;;;;5075612;28;20519;-69
2021/12/12 01:42:42;;;;;;;3.50;3.20;;;15.40;27.60;;;;;;5075692;28;20195;-70
2021/12/12 01:45:18;;;;;;;3.80;3.50;;;15.40;27.60;;;;;;5076389;28;20235;-70
2021/12/12 01:47:52;;;;;;;4.20;3.40;;;15.40;27.70;;;;;;5075634;28;20232;-70
2021/12/12 01:50:22;;;;;;;3.45;3.15;;;15.40;27.70;;;;;;5076238;28;20208;-70
2021/12/12 01:52:51;;;;;;;3.50;3.20;;;15.40;27.80;;;;;;5075675;28;20208;-69
2021/12/12 01:55:24;;;;;;;3.60;3.30;;;15.40;27.70;;;;;;5075808;28;20617;-70
2021/12/12 01:57:53;;;;;;;3.88;3.50;;;15.40;27.80;;;;;;5075498;28;20214;-70
2021/12/12 02:00:26;;;;;;;4.30;3.35;;;15.40;27.60;;;;;;5075231;28;20219;-70
2021/12/12 02:02:54;;;;;;;4.38;3.22;;;15.30;27.50;;;;;;5075398;28;20303;-70
2021/12/12 02:05:22;;;;;;;4.90;3.65;;;15.30;27.40;;;;;;5075459;28;20607;-69
2021/12/12 02:07:54;;;;;;;4.03;3.63;;;15.30;27.50;;;;;;5074790;28;20231;-70
2021/12/12 02:10:26;;;;;;;5.15;3.58;;;15.20;27.40;;;;;;5075887;28;20208;-70
2021/12/12 02:12:54;;;;;;;3.45;3.15;;;15.20;27.40;;;;;;5075099;28;20204;-69
2021/12/12 02:15:22;;;;;;;3.17;2.97;;;15.20;27.30;;;;;;5075473;28;20208;-70
2021/12/12 02:17:51;;;;;;;4.78;3.20;;;15.10;27.20;;;;;;5075564;28;20211;-70
2021/12/12 02:20:29;;;;;;;3.58;3.28;;;15.10;27.30;;;;;;5075505;28;20204;-70
2021/12/12 02:23:06;;;;;;;4.00;3.60;;;15.20;27.30;;;;;;5075403;28;20241;-70
2021/12/12 02:36:37;;;;;;;3.92;3.53;;;15.00;27.20;;;;;;5075001;28;20249;-70
2021/12/12 02:39:15;;;;;;;3.80;3.50;;;15.10;27.30;;;;;;5074944;28;20208;-70
2021/12/12 02:41:44;;;;;;;4.05;3.22;;;15.00;27.20;;;;;;5075370;28;20212;-70
2021/12/12 02:44:12;;;;;;;3.70;3.40;;;15.00;27.20;;;;;;5075913;28;20207;-70
2021/12/12 02:46:43;;;;;;;3.72;3.42;;;15.00;27.20;;;;;;5075350;28;20212;-70
2021/12/12 02:49:36;;;;;;;3.45;3.15;;;15.00;27.20;;;;;;5074939;28;20212;-69
2021/12/12 02:52:00;;;;;;;3.55;3.25;;;15.00;27.20;;;;;;5077801;28;20212;-70
2021/12/12 02:54:29;;;;;;;3.65;3.35;;;15.00;27.20;;;;;;5078939;28;20295;-70
2021/12/12 02:56:56;;;;;;;4.47;4.07;;;14.90;27.10;;;;;;5078707;28;20227;-70
2021/12/12 02:59:26;;;;;;;3.92;3.63;;;14.90;27.20;;;;;;5079193;28;20220;-70
2021/12/12 03:01:57;;;;;;;4.20;3.90;;;14.90;27.20;;;;;;5078536;28;20204;-70
2021/12/12 03:04:25;;;;;;;3.75;3.45;;;14.90;27.20;;;;;;5079069;28;20235;-70
2021/12/12 03:06:53;;;;;;;3.70;3.40;;;14.90;27.20;;;;;;5067553;28;20232;-70
2021/12/12 03:09:23;;;;;;;3.63;3.33;;;14.90;27.20;;;;;;5078259;28;20208;-70
2021/12/12 03:12:01;;;;;;;3.35;3.03;;;14.90;27.20;;;;;;5078943;28;20567;-69
2021/12/12 03:14:32;;;;;;;3.90;3.50;;;14.90;27.20;;;;;;5078755;28;20211;-69
2021/12/12 03:17:01;;;;;;;3.70;3.40;;;14.90;27.20;;;;;;5078667;28;20204;-70
2021/12/12 03:19:29;;;;;;;3.50;3.20;;;14.90;27.20;;;;;;5078471;28;20227;-69
2021/12/12 03:21:57;;;;;;;3.65;3.35;;;14.90;27.10;;;;;;5078171;28;20208;-70
2021/12/12 03:24:28;;;;;;;3.33;3.13;;;14.80;27.10;;;;;;5078117;28;20219;-70
2021/12/12 03:26:59;;;;;;;3.70;3.40;;;14.80;27.10;;;;;;5078328;28;20204;-69
2021/12/12 03:29:28;;;;;;;3.83;3.53;;;14.80;27.20;;;;;;5077521;28;20603;-70
2021/12/12 03:32:00;;;;;;;3.80;3.50;;;14.80;27.20;;;;;;5078129;28;20239;-70
2021/12/12 03:34:30;;;;;;;3.22;3.03;;;14.80;27.20;;;;;;5077988;28;20255;-71
2021/12/12 03:36:58;;;;;;;3.63;3.33;;;14.80;27.10;;;;;;5078161;28;20527;-70
2021/12/12 03:39:28;;;;;;;3.47;3.17;;;14.80;27.20;;;;;;5078421;28;20510;-70
2021/12/12 03:42:00;;;;;;;3.88;3.58;;;14.80;27.20;;;;;;5078051;28;20227;-70
2021/12/12 03:44:32;;;;;;;3.40;3.10;;;14.80;27.30;;;;;;5077771;28;20215;-70
2021/12/12 03:47:06;;;;;;;3.28;2.97;;;14.70;27.80;;;;;;5077884;28;20215;-70
2021/12/12 03:49:34;;;;;;;3.60;3.30;;;14.70;27.20;;;;;;5078128;28;20211;-70
2021/12/12 03:52:02;;;;;;;3.38;3.08;;;14.70;27.20;;;;;;5077489;28;20607;-70
2021/12/12 03:54:30;;;;;;;3.70;3.40;;;14.70;27.20;;;;;;5077744;28;20208;-70
2021/12/12 03:56:58;;;;;;;3.15;2.88;;;14.70;27.20;;;;;;5066609;28;20227;-70
2021/12/12 03:59:26;;;;;;;3.55;3.25;;;14.70;27.20;;;;;;5077242;28;20236;-70
2021/12/12 04:01:54;;;;;;;3.53;3.22;;;14.70;27.20;;;;;;5076983;28;20588;-70
2021/12/12 04:04:25;;;;;;;3.00;2.80;;;14.70;27.20;;;;;;5076596;28;20223;-69
2021/12/12 04:06:55;;;;;;;3.70;3.40;;;14.60;27.10;;;;;;5077847;28;20200;-70
2021/12/12 04:09:23;;;;;;;3.28;2.97;;;14.70;27.20;;;;;;5077229;28;20209;-70
2021/12/12 04:11:54;;;;;;;3.08;2.80;;;14.60;27.10;;;;;;5077418;28;20224;-69
2021/12/12 04:14:24;;;;;;;2.83;2.63;;;14.60;27.10;;;;;;5077437;28;20584;-70
2021/12/12 04:16:54;;;;;;;3.30;3.00;;;14.60;27.20;;;;;;5077097;28;20220;-70
2021/12/12 04:19:21;;;;;;;3.05;2.75;;;14.60;27.20;;;;;;5077287;28;20211;-70
2021/12/12 04:21:49;;;;;;;2.97;2.78;;;14.60;27.10;;;;;;5077155;28;20209;-70
2021/12/12 04:24:21;;;;;;;2.90;2.70;;;14.50;27.10;;;;;;5076226;28;20212;-70
2021/12/12 04:26:48;;;;;;;2.78;2.58;;;14.60;27.20;;;;;;5077182;28;20212;-70
2021/12/12 04:29:19;;;;;;;2.72;2.53;;;14.50;27.20;;;;;;5076880;28;20224;-70
2021/12/12 04:31:51;;;;;;;3.42;3.13;;;14.50;27.20;;;;;;5077044;28;20209;-70
2021/12/12 04:34:21;;;;;;;2.80;2.60;;;14.60;27.30;;;;;;5076557;28;20212;-70
2021/12/12 04:36:49;;;;;;;3.05;2.75;;;14.50;27.20;;;;;;5076778;28;20208;-70
2021/12/12 04:39:19;;;;;;;3.17;2.97;;;14.50;27.30;;;;;;5077038;28;20201;-70
2021/12/12 04:41:48;;;;;;;3.20;2.90;;;14.50;27.30;;;;;;5076785;28;20208;-70
2021/12/12 04:44:21;;;;;;;2.55;2.35;;;14.50;27.30;;;;;;5076632;28;20239;-69
2021/12/12 04:52:27;;;;;;;2.85;2.65;;;14.50;27.20;;;;;;5072958;28;20670;-69
2021/12/12 04:55:01;;;;;;;3.20;2.90;;;14.40;27.20;;;;;;5076557;28;20212;-69
2021/12/12 04:57:35;;;;;;;2.83;2.63;;;14.40;27.20;;;;;;5076365;28;20226;-70
2021/12/12 05:00:10;;;;;;;3.05;2.78;;;14.40;27.20;;;;;;5076260;28;20726;-69
2021/12/12 05:02:45;;;;;;;3.20;2.90;;;14.40;27.20;;;;;;5076056;28;20212;-69
2021/12/12 05:05:19;;;;;;;2.90;2.70;;;14.40;27.20;;;;;;5076260;28;20219;-69
2021/12/12 05:07:52;;;;;;;2.65;2.45;;;14.40;27.30;;;;;;5076581;28;20698;-69
2021/12/12 05:10:22;;;;;;;2.70;2.50;;;14.30;27.20;;;;;;5076239;28;20493;-69
2021/12/12 05:12:55;;;;;;;2.75;2.55;;;14.30;27.20;;;;;;5076341;28;20208;-69
2021/12/12 05:15:27;;;;;;;2.70;2.47;;;14.30;27.30;;;;;;5076248;28;20208;-69
2021/12/12 05:17:59;;;;;;;2.70;2.50;;;14.40;27.30;;;;;;5076827;28;20208;-70
2021/12/12 05:20:32;;;;;;;2.75;2.55;;;14.30;27.30;;;;;;5076591;28;20220;-69
2021/12/12 05:23:03;;;;;;;2.75;2.55;;;14.30;27.30;;;;;;5076902;28;20208;-69
2021/12/12 05:25:37;;;;;;;2.50;2.30;;;14.30;27.30;;;;;;5076856;28;20247;-69
2021/12/12 05:28:05;;;;;;;2.65;2.42;;;14.30;27.30;;;;;;5076845;28;20223;-70
2021/12/12 05:30:35;;;;;;;2.55;2.35;;;14.30;27.30;;;;;;5076522;28;20513;-69
2021/12/12 05:33:06;;;;;;;2.70;2.50;;;14.30;27.30;;;;;;5076659;28;20545;-69
2021/12/12 05:35:39;;;;;;;2.70;2.50;;;14.30;27.30;;;;;;5076478;28;20208;-70
2021/12/12 05:38:08;;;;;;;2.67;2.33;;;14.20;27.30;;;;;;5076539;28;20568;-70
2021/12/12 05:40:37;;;;;;;3.00;2.70;;;14.20;27.30;;;;;;5076512;28;20204;-70
2021/12/12 05:43:06;;;;;;;2.50;2.30;;;14.20;27.30;;;;;;5076113;28;20219;-69
2021/12/12 05:45:36;;;;;;;2.75;2.55;;;14.20;27.30;;;;;;5076077;28;20200;-70
2021/12/12 05:48:07;;;;;;;3.42;2.72;;;14.20;27.30;;;;;;5064815;28;20223;-70
2021/12/12 05:50:35;;;;;;;2.40;2.20;;;14.20;27.30;;;;;;5076464;28;20235;-70
2021/12/12 05:53:03;;;;;;;2.80;2.60;;;14.20;27.30;;;;;;5075964;28;20215;-69
2021/12/12 05:55:33;;;;;;;2.45;2.25;;;14.10;27.30;;;;;;5076612;28;20227;-69
2021/12/12 05:58:02;;;;;;;2.53;2.33;;;14.20;27.90;;;;;;5076153;28;20204;-69
2021/12/12 06:00:33;;;;;;;2.55;2.35;;;14.10;27.30;;;;;;5076088;28;20212;-69
2021/12/12 06:03:02;;;;;;;2.63;2.42;;;14.20;27.40;;;;;;5076264;28;20216;-69
2021/12/12 06:05:33;;;;;;;2.50;2.30;;;14.10;27.30;;;;;;5076303;28;20820;-69
2021/12/12 06:08:00;;;;;;;2.30;2.10;;;14.10;27.30;;;;;;5075978;28;20231;-70
2021/12/12 06:10:29;;;;;;;2.80;2.60;;;14.10;27.40;;;;;;5076110;28;20232;-70
2021/12/12 06:12:57;;;;;;;2.42;2.22;;;14.10;27.30;;;;;;5075491;28;20208;-70
2021/12/12 06:15:27;;;;;;;2.38;2.17;;;14.10;27.90;;;;;;5075846;28;20498;-70
2021/12/12 06:17:55;;;;;;;2.40;2.20;;;14.10;27.40;;;;;;5075958;28;20218;-70
2021/12/12 06:20:23;;;;;;;2.60;2.40;;;14.00;27.30;;;;;;5076004;28;20212;-70
2021/12/12 06:22:53;;;;;;;2.47;2.28;;;14.10;27.40;;;;;;5075763;28;20211;-70
2021/12/12 06:25:20;;;;;;;2.40;2.20;;;14.10;27.40;;;;;;5075864;28;20208;-70
2021/12/12 06:27:48;;;;;;;2.65;2.45;;;14.00;27.30;;;;;;5079881;28;20227;-70
2021/12/12 06:30:19;;;;;;;2.50;2.30;;;14.10;27.30;;;;;;5080055;28;20519;-70
2021/12/12 06:32:49;;;;;;;2.30;2.10;;;14.10;27.40;;;;;;5079860;28;20212;-70
2021/12/12 06:35:17;;;;;;;2.25;2.05;;;14.00;27.40;;;;;;5080079;28;20592;-69
2021/12/12 06:37:46;;;;;;;2.60;2.40;;;14.00;27.40;;;;;;5080268;28;20212;-69
2021/12/12 06:40:19;;;;;;;2.55;2.35;;;14.00;27.40;;;;;;5079442;28;20212;-70
2021/12/12 06:42:48;;;;;;;2.20;2.10;;;14.00;27.40;;;;;;5080163;28;20208;-70
2021/12/12 06:45:16;;;;;;;2.38;2.08;;;14.00;27.40;;;;;;5069033;28;20308;-70
2021/12/12 06:47:44;;;;;;;2.25;2.05;;;14.00;27.40;;;;;;5079744;28;20220;-69
2021/12/12 06:50:12;;;;;;;2.13;1.92;;;13.90;27.30;;;;;;5079457;28;20228;-70
2021/12/12 06:52:40;;;;;;;2.60;2.40;;;13.90;27.40;;;;;;5079833;28;20216;-69
2021/12/12 06:55:11;;;;;;;2.13;2.03;;;13.90;27.40;;;;;;5079552;28;20266;-70
2021/12/12 06:57:40;;;;;;;2.53;2.33;;;13.90;27.40;;;;;;5079353;28;20212;-71
2021/12/12 07:00:10;;;;;;;2.53;2.33;;;13.90;27.40;;;;;;5079269;28;20211;-70
2021/12/12 07:02:38;;;;;;;2.92;2.60;;;13.90;27.40;;;;;;5079749;28;20307;-70
2021/12/12 07:05:08;;;;;;;2.50;2.30;;;13.90;27.50;;;;;;5079398;28;20208;-69
2021/12/12 07:07:35;;;;;;;2.42;2.22;;;13.90;27.40;;;;;;5079303;28;20201;-70
2021/12/12 07:10:04;;;;;;;2.47;2.28;;;13.90;27.50;;;;;;5079283;28;20235;-70
2021/12/12 07:12:32;;;;;;;2.47;2.28;;;13.90;27.50;;;;;;5079040;28;20208;-69
2021/12/12 07:15:03;;;;;;;2.40;2.20;;;13.90;27.40;;;;;;5078776;28;20219;-70
2021/12/12 07:17:31;;;;;;;2.30;2.10;;;13.90;27.50;;;;;;5079073;28;20217;-70
2021/12/12 07:19:59;;;;;;;2.25;2.05;;;13.80;27.40;;;;;;5078778;28;20200;-70
2021/12/12 07:22:26;;;;;;;2.42;2.22;;;13.80;27.50;;;;;;5078750;28;20224;-70
2021/12/12 07:24:53;;;;;;;2.40;2.20;;;13.80;27.40;;;;;;5078775;28;20219;-69
2021/12/12 07:27:21;;;;;;;2.60;2.40;;;13.80;27.40;;;;;;5078794;28;20235;-70
2021/12/12 07:29:48;;;;;;;2.42;2.22;;;13.80;27.50;;;;;;5078554;28;20228;-70
2021/12/12 07:32:17;;;;;;;2.55;2.35;;;13.80;28.10;;;;;;5078362;28;20591;-69
2021/12/12 07:34:44;;;;;;;2.45;2.25;;;13.80;27.50;;;;;;5078633;28;20212;-69
2021/12/12 07:37:12;;;;;;;2.50;2.30;;;13.80;27.50;;;;;;5078350;28;20204;-70
2021/12/12 07:39:41;;;;;;;2.35;2.20;;;13.80;27.50;;;;;;5078708;28;20204;-69
2021/12/12 07:42:09;;;;;;;2.50;2.30;;;13.80;27.50;;;;;;5078168;28;20209;-69
2021/12/12 07:44:40;;;;;;;2.30;2.10;;;13.80;27.50;;;;;;5078672;28;20279;-70
2021/12/12 07:47:09;;;;;;;2.45;2.25;;;13.80;27.50;;;;;;5068147;28;20582;-70
2021/12/12 07:49:42;;;;;;;2.40;2.20;;;13.80;27.50;;;;;;5077877;28;20235;-70
2021/12/12 07:52:12;;;;;;;2.50;2.30;;;13.80;27.50;;;;;;5077516;28;20216;-70
2021/12/12 07:54:40;;;;;;;2.40;2.20;;;13.70;27.50;;;;;;5078002;28;20213;-70
2021/12/12 07:57:09;;;;;;;2.22;2.00;;;13.70;27.50;;;;;;5077747;28;20209;-69
2021/12/12 07:59:38;;;;;;;2.55;2.20;;;13.70;27.50;;;;;;5078183;28;20200;-69
2021/12/12 08:02:07;;;;;;;2.72;2.53;;;13.70;27.50;;;;;;5077781;28;20205;-70
2021/12/12 08:04:34;;;;;;;2.50;2.30;;;13.70;27.50;;;;;;5077988;28;20215;-69
2021/12/12 08:07:06;;;;;;;2.40;2.20;;;13.70;27.60;;;;;;5077950;28;20208;-69
2021/12/12 08:09:33;;;;;;;2.50;2.30;;;13.70;27.60;;;;;;5077705;28;20228;-69
2021/12/12 08:12:01;;;;;;;2.50;2.30;;;13.70;27.60;;;;;;5077294;28;20224;-70
2021/12/12 08:14:29;;;;;;;2.83;2.42;;;13.70;27.60;;;;;;5077853;28;20223;-69
2021/12/12 08:16:58;;;;;;;2.80;2.30;;;13.60;27.50;;;;;;5077660;28;20208;-69
2021/12/12 08:19:27;;;;;;;2.40;2.20;;;13.60;27.50;;;;;;5077588;28;20477;-69
2021/12/12 08:21:56;;;;;;;2.60;2.40;;;13.60;28.20;;;;;;5077090;28;20211;-70
2021/12/12 08:24:25;;;;;;;2.30;2.10;;;13.60;27.60;;;;;;5076837;28;20216;-69
2021/12/12 08:26:54;;;;;;;2.60;2.40;;;13.60;27.60;;;;;;5077207;28;20215;-70
2021/12/12 08:29:21;;;;;;;2.08;1.98;;;13.60;27.50;;;;;;5076273;28;20326;-69
2021/12/12 08:31:49;;;;;;;2.13;1.92;;;13.60;27.60;;;;;;5076467;28;20204;-69
2021/12/12 08:34:16;;;;;;;1.90;1.80;;;13.60;27.60;;;;;;5075023;28;20220;-69
2021/12/12 08:36:47;;;;;;;2.40;2.20;;;13.60;27.60;;;;;;5076401;28;20215;-69
2021/12/12 08:39:15;;;;;;;2.33;2.13;;;13.60;27.60;;;;;;5076601;28;20746;-70
2021/12/12 08:41:47;;;;;;;2.28;2.10;;;13.50;27.50;;;;;;5076976;28;20212;-70
2021/12/12 08:44:15;;;;;;;2.03;1.92;;;13.60;27.60;;;;;;5076548;28;20219;-70
2021/12/12 08:46:46;;;;;;;2.13;1.92;;;13.60;27.60;;;;;;5076856;28;20207;-70
2021/12/12 08:49:14;;;;;;;2.10;1.90;;;13.60;27.60;;;;;;5075944;28;20220;-70
2021/12/12 08:51:46;;;;;;;2.38;2.17;;;13.50;27.60;;;;;;5066044;28;20232;-70
2021/12/12 08:54:23;;;;;;;2.00;1.90;;;13.50;27.50;;;;;;5075773;28;20208;-70
2021/12/12 08:57:02;;;;;;;1.85;1.67;;;13.50;27.60;;;;;;5076481;28;20223;-69
2021/12/12 08:59:31;;;;;;;2.60;2.00;;;13.50;27.60;;;;;;5066698;28;20291;-70
2021/12/12 09:02:02;;;;;;;1.90;1.80;;;13.50;27.60;;;;;;5074722;28;20201;-70
2021/12/12 09:04:31;;;;;;;1.90;1.73;;;13.50;27.50;;;;;;5074691;28;20511;-69
2021/12/12 09:07:02;;;;;;;1.90;1.80;;;13.50;27.60;;;;;;5075059;28;20208;-69
2021/12/12 09:09:34;;;;;;;1.67;1.58;;;13.50;27.60;;;;;;5075481;28;20536;-70
2021/12/12 09:12:05;;;;;;;2.03;1.80;;;13.50;27.60;;;;;;5074696;28;20248;-70
2021/12/12 09:14:37;;;;;;;1.85;1.75;;;13.50;27.60;;;;;;5075054;28;20196;-70
2021/12/12 09:17:09;;;;;;;2.00;1.90;;;13.50;27.60;;;;;;5075469;28;20216;-70
2021/12/12 09:19:41;;;;;;;1.95;1.85;;;13.50;27.60;;;;;;5075278;28;20200;-70
2021/12/12 09:22:15;;;;;;;2.00;1.90;;;13.50;27.60;;;;;;5074608;28;20212;-69
2021/12/12 09:24:52;;;;;;;1.85;1.75;;;13.50;27.60;;;;;;5074417;28;20203;-70
2021/12/12 09:27:31;;;;;;;2.03;1.92;;;13.50;27.60;;;;;;5073661;28;20646;-70
2021/12/12 09:30:01;;;;;;;1.80;1.70;;;13.50;27.60;;;;;;5073970;28;20224;-70
2021/12/12 09:32:35;;;;;;;1.77;1.67;;;13.50;27.60;;;;;;5073442;28;20207;-69
2021/12/12 09:35:08;;;;;;;1.52;1.42;;;13.40;27.60;;;;;;5073935;28;20212;-69
2021/12/12 09:37:39;;;;;;;1.48;1.38;;;13.40;27.60;;;;;;5073974;28;20751;-69
2021/12/12 09:40:14;;;;;;;1.85;1.75;;;13.40;27.60;;;;;;5075540;28;20237;-69
2021/12/12 09:43:00;;;;;;;2.33;1.80;;;13.40;27.60;;;;;;5074839;28;20494;-69
2021/12/12 09:45:49;;;;;;;1.80;1.70;;;13.40;27.60;;;;;;5075448;28;20611;-69
2021/12/12 09:51:51;;;;;;;13.68;10.52;;;13.40;27.60;;;;;;5074861;28;20254;-70
2021/12/12 09:54:27;;;;;;;54.08;38.30;;;13.40;27.70;;;;;;5055012;28;20580;-69
2021/12/12 09:57:01;;;;;;;40.90;29.00;;;13.40;27.70;;;;;;5043593;28;20231;-70
2021/12/12 09:59:43;;;;;;;36.88;25.48;;;13.40;27.60;;;;;;5054494;28;20205;-70
2021/12/12 10:02:21;;;;;;;34.80;24.80;;;13.40;27.70;;;;;;5054994;28;20221;-69
2021/12/12 10:05:14;;;;;;;36.00;23.60;;;13.40;27.70;;;;;;5061138;28;20217;-69
2021/12/12 10:07:52;;;;;;;30.75;22.25;;;13.40;27.80;;;;;;5074532;28;20208;-70
2021/12/12 10:10:26;;;;;;;29.05;20.88;;;13.40;27.80;;;;;;5072879;28;20611;-69
2021/12/12 10:13:01;;;;;;;26.20;19.77;;;13.40;27.80;;;;;;5073778;28;20253;-70
2021/12/12 10:15:34;;;;;;;27.90;19.42;;;13.40;27.90;;;;;;5073287;28;20633;-69
2021/12/12 10:18:09;;;;;;;23.55;18.00;;;13.40;28.00;;;;;;5073160;28;20296;-70
2021/12/12 10:20:40;;;;;;;23.90;18.17;;;13.40;28.00;;;;;;5072764;28;20298;-69
2021/12/12 10:23:13;;;;;;;22.50;17.08;;;13.40;28.00;;;;;;5074251;28;20316;-70
2021/12/12 10:25:49;;;;;;;23.67;16.58;;;13.50;28.20;;;;;;5073924;28;20219;-69
2021/12/12 10:28:20;;;;;;;21.83;16.27;;;13.50;28.30;;;;;;5073531;28;20203;-70
2021/12/12 10:30:57;;;;;;;20.83;14.93;;;13.50;28.30;;;;;;5073933;28;20224;-70
2021/12/12 10:33:28;;;;;;;18.95;14.35;;;13.50;28.30;;;;;;5073983;28;20211;-69
2021/12/12 10:36:01;;;;;;;24.48;15.02;;;13.50;28.30;;;;;;5074098;28;20235;-70
2021/12/12 10:38:34;;;;;;;18.98;13.25;;;13.60;28.50;;;;;;5073738;28;20216;-70
2021/12/12 10:41:07;;;;;;;15.38;12.27;;;13.60;28.50;;;;;;5072684;28;20205;-69
2021/12/12 10:43:38;;;;;;;16.40;11.63;;;13.60;28.50;;;;;;5072768;28;20197;-70
2021/12/12 10:46:11;;;;;;;15.32;11.63;;;13.60;28.60;;;;;;5072591;28;20591;-69
2021/12/12 10:48:46;;;;;;;15.10;11.85;;;13.60;28.60;;;;;;5072567;28;20453;-68
2021/12/12 10:51:16;;;;;;;13.02;10.02;;;13.60;28.60;;;;;;5072519;28;20216;-69
2021/12/12 10:53:50;;;;;;;13.52;10.55;;;13.60;28.60;;;;;;5072533;28;20227;-69
2021/12/12 10:56:21;;;;;;;12.27;10.05;;;13.70;28.60;;;;;;5071856;28;20227;-69
2021/12/12 10:58:53;;;;;;;12.40;10.00;;;13.70;28.60;;;;;;5072842;28;20208;-70
2021/12/12 11:01:27;;;;;;;13.05;9.68;;;13.70;28.60;;;;;;5071900;28;20212;-70
2021/12/12 11:04:02;;;;;;;12.48;8.77;;;13.70;28.60;;;;;;5072583;28;20204;-70
2021/12/12 11:06:34;;;;;;;12.05;9.05;;;13.70;28.60;;;;;;5073058;28;20638;-70
2021/12/12 11:09:07;;;;;;;11.75;8.52;;;13.70;28.60;;;;;;5073475;28;20513;-70
2021/12/12 11:11:40;;;;;;;13.77;8.30;;;13.70;28.60;;;;;;5061392;28;20665;-70
2021/12/12 11:14:15;;;;;;;9.32;7.50;;;13.70;28.60;;;;;;5076976;28;20235;-69
2021/12/12 11:16:50;;;;;;;33.95;30.30;;;13.70;28.60;;;;;;5076429;28;20490;-69
2021/12/12 11:19:23;;;;;;;24.38;21.77;;;13.70;28.60;;;;;;5076626;28;20602;-68
2021/12/12 11:21:56;;;;;;;21.85;19.38;;;13.70;28.60;;;;;;5076188;28;20226;-70
2021/12/12 11:24:27;;;;;;;20.65;17.50;;;13.70;28.60;;;;;;5076883;28;20208;-70
2021/12/12 11:27:00;;;;;;;21.40;17.88;;;13.70;28.70;;;;;;5076707;28;20220;-70
2021/12/12 11:29:32;;;;;;;18.83;16.90;;;13.80;28.80;;;;;;5076849;28;20208;-69
2021/12/12 11:32:05;;;;;;;18.02;15.10;;;13.80;28.80;;;;;;5077043;28;20208;-69
2021/12/12 11:34:33;;;;;;;19.15;14.80;;;13.80;29.10;;;;;;5077555;28;20208;-70
2021/12/12 11:37:12;;;;;;;18.73;14.00;;;13.80;29.20;;;;;;5077660;28;20208;-69
2021/12/12 11:39:50;;;;;;;18.63;14.15;;;13.80;29.10;;;;;;5076279;28;20212;-69
2021/12/12 11:42:22;;;;;;;15.98;13.40;;;13.90;29.20;;;;;;5076717;28;20207;-70
2021/12/12 11:44:58;;;;;;;16.90;12.77;;;13.90;29.20;;;;;;5076254;28;20239;-70
2021/12/12 11:47:40;;;;;;;15.95;11.60;;;13.90;29.20;;;;;;5076175;28;20226;-70
2021/12/12 11:50:11;;;;;;;13.38;11.50;;;13.90;29.20;;;;;;5076572;28;20232;-70
2021/12/12 11:52:47;;;;;;;13.32;10.75;;;13.90;29.10;;;;;;5075298;28;20204;-70
2021/12/12 11:55:21;;;;;;;13.45;10.27;;;13.90;29.20;;;;;;5075795;28;20474;-69
2021/12/12 11:57:55;;;;;;;12.38;10.30;;;13.90;29.10;;;;;;5076038;28;20220;-70
2021/12/12 12:00:28;;;;;;;11.73;9.43;;;13.90;29.10;;;;;;5076342;28;20214;-70
2021/12/12 12:03:16;;;;;;;11.93;9.73;;;13.90;29.10;;;;;;5076061;28;20212;-70
2021/12/12 12:05:53;;;;;;;11.10;9.02;;;14.00;29.10;;;;;;5076388;28;20598;-69
2021/12/12 12:08:25;;;;;;;11.23;8.73;;;14.00;29.10;;;;;;5075562;28;20219;-69
2021/12/12 12:11:05;;;;;;;10.10;8.10;;;14.00;29.10;;;;;;5074776;28;20231;-70
2021/12/12 12:13:57;;;;;;;10.45;7.80;;;14.00;29.10;;;;;;5075723;28;20207;-70
2021/12/12 12:16:36;;;;;;;8.93;7.90;;;14.10;29.10;;;;;;5055489;28;20220;-70
2021/12/12 12:19:17;;;;;;;9.70;7.38;;;14.00;29.00;;;;;;5075571;28;20297;-69
2021/12/12 12:22:05;;;;;;;10.02;7.45;;;14.10;29.10;;;;;;5075242;28;20212;-69
2021/12/12 12:24:41;;;;;;;8.88;6.88;;;14.00;29.00;;;;;;5073157;28;20208;-70
2021/12/12 12:27:12;;;;;;;8.20;6.88;;;14.00;28.90;;;;;;5063925;28;20239;-70
2021/12/12 12:30:27;;;;;;;8.27;6.55;;;14.00;28.90;;;;;;5075460;28;20208;-70
2021/12/12 12:33:36;;;;;;;6.82;6.13;;;14.10;29.60;;;;;;5075385;28;20207;-70
2021/12/12 12:36:42;;;;;;;7.68;6.20;;;14.10;28.90;;;;;;4992699;28;20597;-69
2021/12/12 12:39:45;;;;;;;6.93;6.22;;;14.10;28.90;;;;;;4968711;28;20602;-69
2021/12/12 12:42:49;;;;;;;6.63;5.45;;;14.10;28.90;;;;;;5075345;28;20211;-69
2021/12/12 12:45:55;;;;;;;5.93;5.32;;;14.10;28.90;;;;;;5076155;28;20215;-70
2021/12/12 12:49:08;;;;;;;5.78;5.05;;;14.10;28.90;;;;;;5075935;28;20575;-69
2021/12/12 12:52:07;;;;;;;22.52;17.10;;;14.20;28.90;;;;;;5076057;28;20224;-70
2021/12/12 12:54:44;;;;;;;14.82;10.93;;;14.20;28.90;;;;;;5055228;28;20679;-70
2021/12/12 12:57:21;;;;;;;13.90;9.45;;;14.20;29.00;;;;;;5055888;28;20231;-70
2021/12/12 12:59:57;;;;;;;13.13;9.20;;;14.20;29.00;;;;;;5055855;28;20262;-70
2021/12/12 13:02:29;;;;;;;12.50;8.85;;;14.10;28.90;;;;;;5055648;28;20209;-70
2021/12/12 13:05:31;;;;;;;12.05;8.10;;;14.20;29.00;;;;;;5060111;28;20209;-70
2021/12/12 13:08:43;;;;;;;11.90;8.82;;;14.20;29.00;;;;;;5075399;28;20219;-69
2021/12/12 13:11:14;;;;;;;12.80;7.85;;;14.20;29.10;;;;;;5031241;28;20236;-70
2021/12/12 13:13:51;;;;;;;12.90;8.23;;;14.20;29.20;;;;;;5074538;28;20598;-70
2021/12/12 13:16:28;;;;;;;10.55;7.88;;;14.20;29.10;;;;;;5075656;28;20204;-69
2021/12/12 13:18:59;;;;;;;12.35;8.40;;;14.20;29.20;;;;;;5075495;28;20602;-69
2021/12/12 13:21:33;;;;;;;15.70;7.60;;;14.30;29.90;;;;;;5075452;28;20592;-70
2021/12/12 13:24:08;;;;;;;11.27;7.53;;;14.30;29.30;;;;;;5074353;28;20203;-69
2021/12/12 13:26:57;;;;;;;13.30;7.80;;;14.30;29.30;;;;;;5074987;28;20212;-69
2021/12/12 13:29:46;;;;;;;13.88;7.85;;;14.30;29.30;;;;;;5075152;28;20209;-70
2021/12/12 13:32:25;;;;;;;11.10;7.43;;;14.30;29.30;;;;;;5074649;28;20322;-70